Time;durP1;ratioP1;P1;durP2;ratioP2;P2;SDS_P1;SDS_P2;PMS_P1;PMS_P2;Temp;Humidity;BMP_temperature;BMP_pressure;BME280_temperature;BME280_humidity;BME280_pressure;Samples;Min_cycle;Max_cycle;Signal;HPM_P1;HPM_P2
2022/04/19 00:03:54;;;;;;;6.77;2.70;;;;;;;7.26;84.74;100261.56;10455463;28;20211;-68
2022/04/19 00:08:58;;;;;;;7.33;2.87;;;;;;;7.21;87.74;100253.81;10457522;28;20197;-70
2022/04/19 00:14:01;;;;;;;9.23;3.10;;;;;;;7.13;95.53;100258.06;10458738;28;20341;-68
2022/04/19 00:19:06;;;;;;;6.10;2.63;;;;;;;7.07;99.28;100256.34;10458484;28;20197;-71
2022/04/19 00:24:09;;;;;;;7.30;3.27;;;;;;;7.05;100.00;100254.63;10458720;28;20204;-71
2022/04/19 00:29:12;;;;;;;7.00;2.83;;;;;;;6.87;100.00;100252.84;10458717;28;20207;-72
2022/04/19 00:34:17;;;;;;;7.10;3.00;;;;;;;6.82;100.00;100244.25;10458736;28;20303;-74
2022/04/19 00:39:20;;;;;;;7.50;3.13;;;;;;;6.68;100.00;100245.03;10458534;28;20213;-70
2022/04/19 00:44:24;;;;;;;7.77;3.10;;;;;;;6.66;100.00;100250.19;10458179;28;20232;-64
2022/04/19 00:49:28;;;;;;;6.23;2.70;;;;;;;6.60;100.00;100234.72;10458689;28;20550;-66
2022/04/19 00:54:33;;;;;;;7.23;3.03;;;;;;;6.35;100.00;100232.88;10458636;28;20233;-65
2022/04/19 00:59:36;;;;;;;6.10;2.63;;;;;;;6.18;100.00;100234.50;10457955;28;20553;-67
2022/04/19 01:04:41;;;;;;;7.47;3.10;;;;;;;6.22;100.00;100225.97;10458100;28;20216;-67
2022/04/19 01:09:44;;;;;;;6.20;2.63;;;;;;;6.21;100.00;100218.22;10458055;28;20221;-67
2022/04/19 01:14:49;;;;;;;8.30;2.93;;;;;;;6.13;100.00;100220.75;10459290;28;20237;-63
2022/04/19 01:19:54;;;;;;;8.97;3.67;;;;;;;6.09;100.00;100220.72;10448184;28;20251;-64
2022/04/19 01:24:59;;;;;;;7.40;3.30;;;;;;;6.13;100.00;100215.59;10464868;28;20231;-68
2022/04/19 01:30:05;;;;;;;7.83;3.50;;;;;;;6.14;100.00;100204.47;10465733;28;20219;-65
2022/04/19 01:35:11;;;;;;;9.13;3.90;;;;;;;6.09;100.00;100205.28;10464811;28;20239;-69
2022/04/19 01:40:17;;;;;;;8.63;3.47;;;;;;;6.07;100.00;100206.97;10464616;28;20613;-72
2022/04/19 01:45:23;;;;;;;8.00;3.57;;;;;;;6.03;100.00;100207.81;10464245;28;20284;-67
2022/04/19 01:50:30;;;;;;;8.67;3.90;;;;;;;6.00;100.00;100207.78;10461262;28;20220;-69
2022/04/19 01:55:34;;;;;;;8.50;3.60;;;;;;;5.94;100.00;100215.50;10460660;28;20224;-67
2022/04/19 02:00:37;;;;;;;7.10;3.47;;;;;;;5.99;100.00;100206.91;10460109;28;20227;-70
2022/04/19 02:05:41;;;;;;;9.87;4.20;;;;;;;5.90;100.00;100208.59;10460151;28;20303;-70
2022/04/19 02:10:46;;;;;;;7.50;4.27;;;;;;;5.86;100.00;100210.28;10463585;28;20304;-71
2022/04/19 02:15:49;;;;;;;8.77;4.30;;;;;;;5.87;100.00;100206.00;10459774;28;20247;-70
2022/04/19 02:20:52;;;;;;;9.33;5.00;;;;;;;5.74;100.00;100205.03;10110358;28;9999970;-71
2022/04/19 02:25:57;;;;;;;9.20;4.77;;;;;;;5.74;100.00;100200.75;10459036;28;20304;-68
2022/04/19 02:31:00;;;;;;;8.17;4.43;;;;;;;5.75;100.00;100202.47;10459119;28;20220;-69
2022/04/19 02:36:04;;;;;;;9.97;4.97;;;;;;;5.63;100.00;100210.09;10458577;28;20662;-69
2022/04/19 02:41:09;;;;;;;9.90;4.70;;;;;;;5.66;100.00;100194.66;10458958;28;20219;-70
2022/04/19 02:46:13;;;;;;;10.10;4.40;;;;;;;5.64;100.00;100206.66;10458406;28;20227;-64
2022/04/19 02:51:16;;;;;;;9.70;4.47;;;;;;;5.41;100.00;100202.22;10458961;28;20253;-65
2022/04/19 02:56:21;;;;;;;7.53;4.00;;;;;;;5.43;100.00;100206.53;10457856;28;20235;-65
2022/04/19 03:01:24;;;;;;;10.20;4.43;;;;;;;5.18;100.00;100201.13;10457444;28;20227;-65
2022/04/19 03:06:27;;;;;;;9.47;5.10;;;;;;;5.20;100.00;100199.44;10460475;28;20229;-71
2022/04/19 03:11:33;;;;;;;8.83;5.17;;;;;;;5.30;100.00;100202.13;10460532;28;20217;-68
2022/04/19 03:16:36;;;;;;;8.20;5.13;;;;;;;5.19;100.00;100202.88;10460198;28;20239;-69
2022/04/19 03:21:39;;;;;;;8.23;4.50;;;;;;;5.14;100.00;100208.00;10457372;28;20221;-71
2022/04/19 03:32:06;;;;;;;7.80;3.73;;;;;;;5.02;100.00;100214.72;10459599;28;20224;-68
2022/04/19 03:37:09;;;;;;;7.80;3.60;;;;;;;4.94;100.00;100212.06;10456030;28;20670;-68
2022/04/19 03:42:14;;;;;;;6.80;3.50;;;;;;;4.96;100.00;100217.22;10456520;28;20307;-72
2022/04/19 03:47:17;;;;;;;6.33;2.90;;;;;;;4.92;100.00;100218.06;10455999;28;20567;-72
2022/04/19 03:52:20;;;;;;;5.93;3.10;;;;;;;4.92;100.00;100223.19;10456354;28;20744;-68
2022/04/19 03:57:25;;;;;;;4.70;2.60;;;;;;;4.90;100.00;100237.75;10455955;28;20220;-66
2022/04/19 04:02:30;;;;;;;6.80;3.50;;;;;;;4.90;100.00;100241.16;10455733;28;20247;-66
2022/04/19 04:07:37;;;;;;;6.80;2.43;;;;;;;4.72;100.00;100246.13;10455744;28;20221;-66
2022/04/19 04:12:41;;;;;;;5.37;2.40;;;;;;;4.79;100.00;100245.34;10456487;28;20270;-70
2022/04/19 04:17:44;;;;;;;5.80;3.10;;;;;;;5.00;100.00;100252.41;10458595;28;20224;-70
2022/04/19 04:22:48;;;;;;;8.03;3.07;;;;;;;5.02;100.00;100261.84;10442143;28;20315;-71
2022/04/19 04:27:55;;;;;;;6.43;3.07;;;;;;;5.04;100.00;100269.63;10458709;28;20269;-69
2022/04/19 04:32:59;;;;;;;7.77;4.30;;;;;;;5.07;100.00;100267.06;10458492;28;20217;-70
2022/04/19 04:38:02;;;;;;;7.00;3.03;;;;;;;5.08;100.00;100276.50;10458578;28;20224;-70
2022/04/19 04:43:06;;;;;;;7.27;3.63;;;;;;;4.95;100.00;100275.53;10458315;28;20223;-72
2022/04/19 04:53:30;;;;;;;8.73;3.90;;;;;;;4.86;100.00;100290.84;10467512;28;20299;-70
2022/04/19 04:58:35;;;;;;;7.77;3.80;;;;;;;4.90;100.00;100290.00;10466081;28;20224;-68
2022/04/19 05:03:38;;;;;;;5.93;2.90;;;;;;;5.10;100.00;100291.09;10465621;28;20224;-73
2022/04/19 05:08:42;;;;;;;6.43;3.30;;;;;;;5.17;100.00;100295.47;10465494;28;20316;-69
2022/04/19 05:13:47;;;;;;;5.93;2.73;;;;;;;5.23;100.00;100285.22;10465161;28;20353;-69
2022/04/19 05:18:50;;;;;;;5.43;2.47;;;;;;;5.25;100.00;100286.13;10464782;28;20547;-73
2022/04/19 05:23:54;;;;;;;4.60;2.20;;;;;;;5.32;100.00;100285.31;10464772;28;20220;-69
2022/04/19 05:28:59;;;;;;;4.77;2.10;;;;;;;5.20;100.00;100300.66;10464649;28;20231;-72
2022/04/19 05:34:02;;;;;;;5.10;2.73;;;;;;;5.43;100.00;100306.03;10465699;28;20216;-69
2022/04/19 05:39:05;;;;;;;6.00;3.07;;;;;;;5.45;100.00;100300.03;10464278;28;20533;-71
2022/04/19 05:44:10;;;;;;;5.93;3.27;;;;;;;5.30;100.00;100314.44;10464389;28;20221;-71
2022/04/19 05:49:13;;;;;;;8.83;3.43;;;;;;;5.42;100.00;100317.13;10463967;28;20217;-71
2022/04/19 05:54:16;;;;;;;7.00;4.10;;;;;;;5.50;100.00;100318.09;10463722;28;20224;-72
2022/04/19 05:59:21;;;;;;;6.47;3.87;;;;;;;5.36;100.00;100335.09;10463194;28;20303;-72
2022/04/19 06:09:47;;;;;;;6.13;3.30;;;;;;;5.49;100.00;100344.66;10459742;28;20239;-69
2022/04/19 06:14:52;;;;;;;6.00;3.00;;;;;;;5.51;100.00;100345.56;10465045;28;20323;-68
2022/04/19 06:19:55;;;;;;;5.93;2.67;;;;;;;5.62;100.00;100355.13;10462716;28;20299;-70
2022/04/19 06:24:59;;;;;;;5.33;2.83;;;;;;;5.51;100.00;100359.28;10462512;28;20216;-70
2022/04/19 06:30:04;;;;;;;5.53;2.80;;;;;;;5.55;100.00;100361.06;10462205;28;20225;-70
2022/04/19 06:35:10;;;;;;;4.80;2.70;;;;;;;5.73;100.00;100357.78;10462285;28;20217;-69
2022/04/19 06:40:14;;;;;;;4.67;2.40;;;;;;;5.68;100.00;100362.88;10461746;28;20231;-68
2022/04/19 06:45:19;;;;;;;4.90;2.57;;;;;;;5.88;100.00;100363.94;10461504;28;20676;-70
2022/04/19 06:50:23;;;;;;;5.90;2.47;;;;;;;6.20;100.00;100379.69;10461352;28;20231;-67
2022/04/19 06:55:26;;;;;;;5.97;3.20;;;;;;;6.25;100.00;100390.88;10463477;28;20246;-70
2022/04/19 07:00:31;;;;;;;5.30;2.70;;;;;;;6.34;100.00;100385.81;10461206;28;20227;-68
2022/04/19 07:05:34;;;;;;;6.87;2.90;;;;;;;6.29;99.99;100402.94;10461177;28;20231;-68
2022/04/19 07:10:38;;;;;;;5.30;2.50;;;;;;;6.32;98.57;100408.13;10460380;28;20312;-72
2022/04/19 07:15:42;;;;;;;5.17;2.83;;;;;;;6.59;100.00;100399.72;10459482;28;20236;-72
2022/04/19 07:31:29;;;;;;;5.63;2.47;;;;;;;6.65;100.00;100418.69;10460135;28;20668;-71
2022/04/19 07:36:33;;;;;;;4.73;2.37;;;;;;;6.66;95.19;100417.81;10461605;28;20233;-69
2022/04/19 07:41:38;;;;;;;5.67;2.50;;;;;;;6.80;93.93;100426.50;10459730;28;20224;-73
2022/04/19 07:46:43;;;;;;;4.17;2.30;;;;;;;6.94;92.35;100424.00;10459748;28;20308;-71
2022/04/19 07:51:46;;;;;;;4.40;2.50;;;;;;;7.10;92.79;100424.94;10459404;28;20231;-72
2022/04/19 07:56:50;;;;;;;5.40;2.30;;;;;;;7.17;90.05;100435.31;10457909;28;20216;-70
2022/04/19 08:01:54;;;;;;;6.40;2.60;;;;;;;7.22;90.71;100443.06;10455798;28;20225;-70
2022/04/19 08:06:59;;;;;;;4.43;2.20;;;;;;;7.35;89.74;100443.13;10455466;28;20612;-71
2022/04/19 08:12:02;;;;;;;7.47;2.63;;;;;;;7.16;90.03;100449.09;10456938;28;20239;-69
2022/04/19 08:17:07;;;;;;;5.90;2.53;;;;;;;7.24;90.86;100462.88;10108575;28;10000010;-73
2022/04/19 08:22:10;;;;;;;5.70;2.73;;;;;;;7.21;89.09;100459.41;10455053;28;20221;-70
2022/04/19 08:27:16;;;;;;;5.20;2.50;;;;;;;7.11;86.78;100465.38;10463126;28;20227;-69
2022/04/19 08:32:20;;;;;;;5.93;3.10;;;;;;;7.14;86.56;100457.66;10463832;28;20232;-74
2022/04/19 08:37:29;;;;;;;7.10;2.90;;;;;;;7.16;89.99;100474.88;10463307;28;20319;-70
2022/04/19 08:42:32;;;;;;;5.93;3.07;;;;;;;7.02;87.53;100469.63;10462855;28;20238;-71
2022/04/19 08:47:40;;;;;;;6.57;3.20;;;;;;;7.13;88.66;100467.09;10462774;28;20227;-66
2022/04/19 08:52:43;;;;;;;5.37;2.80;;;;;;;7.28;86.99;100474.09;10464736;28;20230;-68
2022/04/19 08:57:46;;;;;;;5.63;3.10;;;;;;;7.25;86.53;100469.75;10462394;28;20625;-68
2022/04/19 09:02:53;;;;;;;5.77;2.43;;;;;;;7.24;87.08;100474.91;10462466;28;20216;-70
2022/04/19 09:07:58;;;;;;;6.40;3.07;;;;;;;7.30;85.01;100469.78;10461833;28;20240;-71
2022/04/19 09:13:04;;;;;;;6.93;3.03;;;;;;;7.38;83.89;100475.84;10462764;28;20319;-70
2022/04/19 09:18:15;;;;;;;6.43;3.33;;;;;;;7.54;86.72;100477.66;10461692;28;20711;-72
2022/04/19 09:23:18;;;;;;;5.43;3.03;;;;;;;7.68;84.95;100478.56;10461486;28;20221;-70
2022/04/19 09:28:23;;;;;;;7.03;3.13;;;;;;;7.78;82.60;100480.31;10461598;28;20262;-71
2022/04/19 09:33:28;;;;;;;5.13;2.67;;;;;;;7.94;80.56;100477.75;10463506;28;20299;-71
2022/04/19 09:38:36;;;;;;;6.00;2.57;;;;;;;7.99;79.75;100481.22;10460122;28;20239;-69
2022/04/19 09:43:40;;;;;;;5.53;2.77;;;;;;;8.03;78.39;100480.38;10461036;28;20223;-72
2022/04/19 09:48:48;;;;;;;5.47;2.60;;;;;;;8.15;79.04;100488.16;10460603;28;20221;-72
2022/04/19 09:53:52;;;;;;;4.77;2.43;;;;;;;8.36;76.18;100491.63;10460841;28;20308;-71
2022/04/19 09:58:56;;;;;;;4.90;2.17;;;;;;;8.44;75.14;100498.53;10460006;28;20224;-71
2022/04/19 10:09:24;;;;;;;5.07;2.50;;;;;;;8.49;74.30;100495.97;10460675;28;20284;-69
2022/04/19 10:14:30;;;;;;;4.77;2.10;;;;;;;8.46;73.28;100504.59;10462047;28;20232;-69
2022/04/19 10:19:36;;;;;;;4.50;2.07;;;;;;;8.49;72.25;100506.31;10459722;28;20234;-71
2022/04/19 10:24:46;;;;;;;4.80;2.30;;;;;;;8.46;72.62;100502.00;10459427;28;20227;-69
2022/04/19 10:29:51;;;;;;;4.80;2.53;;;;;;;8.43;72.18;100506.31;10459054;28;20247;-70
2022/04/19 10:35:03;;;;;;;5.60;2.60;;;;;;;8.32;74.85;100514.03;10459891;28;20209;-68
2022/04/19 10:40:12;;;;;;;5.70;2.73;;;;;;;8.40;76.40;100514.94;10458936;28;20239;-70
2022/04/19 10:45:20;;;;;;;5.53;2.80;;;;;;;8.31;75.99;100511.47;10458537;28;20652;-70
2022/04/19 10:50:29;;;;;;;6.10;2.63;;;;;;;8.16;74.94;100518.28;10443426;28;20249;-70
2022/04/19 10:55:34;;;;;;;7.47;2.97;;;;;;;8.03;76.21;100515.69;10459095;28;20674;-68
2022/04/19 11:00:43;;;;;;;4.93;2.53;;;;;;;8.04;77.06;100513.09;10460651;28;20228;-68
2022/04/19 11:06:31;;;;;;;5.53;2.60;;;;;;;8.07;75.91;100520.00;10460665;28;20235;-69
2022/04/19 11:11:46;;;;;;;4.50;2.20;;;;;;;8.10;74.10;100517.44;10460318;28;20281;-68
2022/04/19 11:17:20;;;;;;;7.27;2.80;;;;;;;8.32;73.66;100515.78;10460139;28;20564;-71
2022/04/19 11:22:42;;;;;;;6.00;2.83;;;;;;;8.63;74.77;100513.22;10460495;28;20189;-70
2022/04/19 11:28:26;;;;;;;5.07;2.70;;;;;;;8.75;74.02;100507.19;10461763;28;20279;-70
2022/04/19 11:33:33;;;;;;;5.67;2.40;;;;;;;8.85;72.91;100504.56;10459874;28;20208;-72
2022/04/19 11:38:45;;;;;;;6.07;2.73;;;;;;;8.76;73.21;100508.91;10459699;28;20225;-69
2022/04/19 11:49:24;;;;;;;6.17;2.63;;;;;;;8.97;69.70;100507.13;10426503;28;20396;-71
2022/04/19 11:54:31;;;;;;;5.10;3.07;;;;;;;8.95;68.86;100502.84;10459295;28;20686;-70
2022/04/19 11:59:36;;;;;;;5.73;2.17;;;;;;;9.00;69.86;100501.13;10474853;28;20264;-69
2022/04/19 12:04:49;;;;;;;6.07;2.13;;;;;;;9.06;67.86;100504.53;10459855;28;20691;-69
2022/04/19 12:09:54;;;;;;;5.93;2.87;;;;;;;9.33;68.42;100495.88;10463398;28;20684;-72
2022/04/19 12:14:58;;;;;;;5.67;2.67;;;;;;;9.37;68.15;100496.72;10458707;28;20665;-73
2022/04/19 12:20:03;;;;;;;6.23;2.60;;;;;;;9.58;67.79;100488.88;10458496;28;20315;-69
2022/04/19 12:25:08;;;;;;;4.67;2.50;;;;;;;9.45;66.98;100484.59;10441412;28;20273;-72
2022/04/19 12:30:12;;;;;;;4.87;2.33;;;;;;;9.31;67.63;100487.22;10458641;28;20694;-70
2022/04/19 12:35:17;;;;;;;6.37;2.30;;;;;;;9.44;66.47;100490.66;10458481;28;20223;-71
2022/04/19 12:40:28;;;;;;;6.13;2.17;;;;;;;9.53;68.08;100488.00;10458835;28;20223;-70
2022/04/19 12:45:32;;;;;;;4.83;2.30;;;;;;;9.56;65.62;100483.66;10460952;28;20213;-72
2022/04/19 12:50:37;;;;;;;4.90;2.33;;;;;;;9.43;65.05;100476.84;10441134;28;20240;-70
2022/04/19 12:55:41;;;;;;;4.17;1.97;;;;;;;9.54;64.99;100484.56;10458068;28;20227;-73
2022/04/19 13:00:45;;;;;;;5.37;2.57;;;;;;;9.84;63.91;100482.69;10457919;28;20232;-71
2022/04/19 13:16:32;;;;;;;6.07;2.43;;;;;;;11.19;59.77;100472.97;10464994;28;20232;-70
2022/04/19 13:21:35;;;;;;;4.93;2.40;;;;;;;10.54;60.75;100477.94;10465564;28;20254;-72
2022/04/19 13:26:42;;;;;;;5.13;2.17;;;;;;;9.95;60.83;100477.44;10461702;28;20704;-72
2022/04/19 13:31:46;;;;;;;4.53;2.00;;;;;;;9.95;60.39;100472.25;10462231;28;20248;-68
2022/04/19 13:36:51;;;;;;;4.80;2.40;;;;;;;10.10;61.52;100472.19;10112822;28;10000621;-68
2022/04/19 13:41:56;;;;;;;6.40;3.00;;;;;;;10.14;59.80;100463.53;10461207;28;20236;-70
2022/04/19 13:47:01;;;;;;;6.13;2.60;;;;;;;10.20;60.33;100471.25;10460675;28;20299;-70
2022/04/19 13:52:09;;;;;;;5.57;2.30;;;;;;;10.32;59.72;100463.38;10461703;28;20324;-69
2022/04/19 13:57:14;;;;;;;3.90;1.90;;;;;;;10.28;56.58;100461.72;10463548;28;20213;-69
2022/04/19 14:02:17;;;;;;;4.87;2.30;;;;;;;10.10;57.49;100459.22;10460168;28;20213;-71
2022/04/19 14:07:21;;;;;;;5.30;2.63;;;;;;;10.36;57.29;100452.13;10459642;28;20216;-69
2022/04/19 14:12:27;;;;;;;7.80;2.97;;;;;;;10.39;59.52;100449.50;10459591;28;20548;-66
2022/04/19 14:17:30;;;;;;;5.67;2.60;;;;;;;10.31;60.77;100457.34;10459529;28;20235;-68
2022/04/19 14:22:34;;;;;;;5.60;2.50;;;;;;;10.70;56.42;100448.38;10459027;28;20233;-69
2022/04/19 14:27:39;;;;;;;7.23;2.27;;;;;;;10.69;56.05;100448.38;10458910;28;20684;-70
2022/04/19 14:38:06;;;;;;;5.50;2.00;;;;;;;11.15;54.80;100441.84;10458455;28;20770;-69
2022/04/19 14:43:11;;;;;;;4.90;2.40;;;;;;;11.29;54.90;100438.22;10458689;28;20307;-70
2022/04/19 14:48:14;;;;;;;4.03;1.80;;;;;;;11.30;56.34;100450.31;10458595;28;20251;-72
2022/04/19 14:53:22;;;;;;;4.20;2.00;;;;;;;11.07;56.27;100448.88;10457646;28;20212;-71
2022/04/19 14:58:27;;;;;;;4.47;2.03;;;;;;;10.94;56.66;100450.72;10457902;28;20226;-70
2022/04/19 15:03:37;;;;;;;4.33;2.00;;;;;;;10.91;55.26;100442.97;10457685;28;20217;-68
2022/04/19 15:08:40;;;;;;;4.87;2.10;;;;;;;10.82;56.23;100440.47;10458589;28;20289;-66
2022/04/19 15:13:45;;;;;;;5.40;2.57;;;;;;;10.74;55.52;100450.06;10457138;28;20437;-68
2022/04/19 15:18:48;;;;;;;9.83;4.53;;;;;;;10.52;56.30;100453.72;10457214;28;20656;-68
2022/04/19 15:23:52;;;;;;;5.93;2.40;;;;;;;10.44;57.25;100452.91;10457598;28;20212;-69
2022/04/19 15:28:56;;;;;;;5.37;1.80;;;;;;;10.46;57.32;100454.63;10457138;28;20240;-70
2022/04/19 15:34:01;;;;;;;5.03;2.00;;;;;;;10.33;57.61;100455.63;10456294;28;20224;-69
2022/04/19 15:39:05;;;;;;;6.67;2.80;;;;;;;10.32;57.46;100453.88;10456329;28;20311;-68
2022/04/19 15:44:10;;;;;;;4.77;2.10;;;;;;;10.21;57.62;100457.44;10457318;28;20623;-69
2022/04/19 15:49:14;;;;;;;5.30;2.50;;;;;;;10.13;57.06;100452.28;10440320;28;20315;-69
2022/04/19 15:54:17;;;;;;;4.73;2.17;;;;;;;10.18;55.77;100445.34;10455846;28;20225;-68
2022/04/19 15:59:22;;;;;;;4.97;2.30;;;;;;;10.11;55.67;100437.63;10438184;28;20727;-62
2022/04/19 16:04:25;;;;;;;5.57;2.23;;;;;;;9.96;59.96;100442.84;10454155;28;20925;-66
2022/04/19 16:09:28;;;;;;;5.70;1.70;;;;;;;9.89;56.12;100438.56;10455422;28;20221;-62
2022/04/19 16:14:33;;;;;;;7.17;2.50;;;;;;;9.99;58.12;100435.09;10454039;28;20228;-61
2022/04/19 16:24:57;;;;;;;5.37;2.57;;;;;;;9.66;58.64;100433.56;10455095;28;20220;-63
2022/04/19 16:30:02;;;;;;;5.57;2.60;;;;;;;9.50;55.97;100424.13;10455203;28;20193;-62
2022/04/19 16:35:07;;;;;;;5.10;2.10;;;;;;;9.54;59.14;100423.25;10455085;28;20193;-61
2022/04/19 16:40:12;;;;;;;5.53;2.47;;;;;;;9.50;58.76;100426.72;10454487;28;20213;-63
2022/04/19 16:45:23;;;;;;;5.57;2.27;;;;;;;9.39;61.62;100427.66;10457651;28;20539;-68
2022/04/19 16:50:26;;;;;;;5.80;2.50;;;;;;;9.32;60.69;100424.19;10462501;28;20196;-73
2022/04/19 16:55:31;;;;;;;5.63;2.80;;;;;;;9.22;61.05;100428.56;10462671;28;20189;-65
2022/04/19 17:00:36;;;;;;;8.33;2.17;;;;;;;9.17;58.06;100422.53;10462821;28;20242;-64
2022/04/19 17:05:40;;;;;;;6.43;2.30;;;;;;;9.06;62.10;100426.03;10462126;28;20624;-65
2022/04/19 17:10:43;;;;;;;4.10;2.10;;;;;;;8.99;59.51;100434.69;10462011;28;20204;-63
2022/04/19 17:15:50;;;;;;;6.63;3.03;;;;;;;8.93;58.81;100422.63;10462518;28;20315;-67
2022/04/19 17:20:53;;;;;;;5.10;2.47;;;;;;;8.80;57.38;100431.25;10461572;28;20223;-64
2022/04/19 17:25:56;;;;;;;6.30;2.77;;;;;;;8.79;59.09;100431.25;10461429;28;20237;-65
2022/04/19 17:31:01;;;;;;;6.60;3.30;;;;;;;8.77;59.88;100440.75;10461201;28;20304;-64
2022/04/19 17:36:05;;;;;;;7.23;3.73;;;;;;;8.66;60.86;100433.00;10460694;28;20246;-66
2022/04/19 17:41:11;;;;;;;6.00;3.13;;;;;;;8.65;61.97;100438.19;10461092;28;20220;-65
2022/04/19 17:46:16;;;;;;;9.83;3.13;;;;;;;8.62;63.53;100446.81;10460675;28;20221;-64
2022/04/19 17:56:42;;;;;;;4.80;2.63;;;;;;;8.60;62.24;100445.97;10459431;28;20315;-65
2022/04/19 18:01:47;;;;;;;10.33;5.10;;;;;;;8.56;62.83;100448.56;10459768;28;20235;-72
2022/04/19 18:06:52;;;;;;;5.80;2.80;;;;;;;8.51;66.38;100458.03;10444066;28;20676;-71
2022/04/19 18:11:56;;;;;;;5.50;2.97;;;;;;;8.57;65.91;100463.19;10462138;28;20224;-71
2022/04/19 18:17:01;;;;;;;5.30;2.63;;;;;;;8.49;64.03;100462.34;10460390;28;20235;-72
2022/04/19 18:27:25;;;;;;;7.73;3.37;;;;;;;8.56;62.26;100462.31;10477880;28;20239;-74
2022/04/19 18:32:30;;;;;;;6.47;3.10;;;;;;;8.56;63.00;100457.16;10462974;28;20230;-73
2022/04/19 18:37:36;;;;;;;6.23;2.60;;;;;;;8.61;64.71;100459.75;10463854;28;20236;-73
2022/04/19 18:42:40;;;;;;;7.10;2.60;;;;;;;8.60;62.92;100456.31;10464258;28;20224;-72
2022/04/19 18:47:45;;;;;;;6.17;2.83;;;;;;;8.66;61.84;100458.88;10462649;28;20320;-74
2022/04/19 18:52:48;;;;;;;5.57;2.17;;;;;;;8.57;59.88;100453.72;10462720;28;20224;-74
2022/04/19 18:57:53;;;;;;;5.47;2.40;;;;;;;8.52;60.35;100463.22;10462104;28;20250;-74
2022/04/19 19:02:58;;;;;;;5.83;2.53;;;;;;;8.56;61.51;100461.50;10462223;28;20220;-72
2022/04/19 19:08:02;;;;;;;4.77;2.40;;;;;;;8.54;60.77;100458.03;10461311;28;20295;-74
2022/04/19 19:13:05;;;;;;;5.43;2.30;;;;;;;8.52;62.56;100464.94;10462523;28;20706;-72
2022/04/19 19:18:10;;;;;;;5.27;2.33;;;;;;;8.57;61.25;100473.56;10462628;28;20227;-72
2022/04/19 19:23:13;;;;;;;8.17;4.03;;;;;;;8.47;64.79;100474.41;10460935;28;20234;-74
2022/04/19 19:28:17;;;;;;;8.60;4.17;;;;;;;8.34;70.24;100465.78;10460642;28;20212;-74
2022/04/19 19:33:22;;;;;;;9.23;5.37;;;;;;;8.21;72.78;100476.97;10460069;28;20220;-71
2022/04/19 19:38:26;;;;;;;8.67;4.60;;;;;;;8.08;75.97;100477.78;10459878;28;20242;-74
2022/04/19 19:43:29;;;;;;;8.93;4.57;;;;;;;8.01;78.43;100468.28;10460012;28;20252;-72
2022/04/19 19:48:34;;;;;;;9.03;4.17;;;;;;;7.96;79.37;100464.84;10465836;28;20657;-74
2022/04/19 19:53:37;;;;;;;7.90;4.23;;;;;;;8.00;79.92;100466.56;10461219;28;20217;-72
2022/04/19 19:58:41;;;;;;;7.87;4.20;;;;;;;8.03;82.37;100469.16;10459879;28;20649;-72
2022/04/19 20:03:46;;;;;;;12.67;3.50;;;;;;;8.02;81.45;100464.88;10460091;28;20242;-72
2022/04/19 20:08:49;;;;;;;7.47;3.90;;;;;;;8.00;82.54;100472.63;10464698;28;20291;-72
2022/04/19 20:13:53;;;;;;;8.07;3.80;;;;;;;7.94;84.34;100476.88;10466148;28;20334;-74
2022/04/19 20:18:58;;;;;;;8.37;3.53;;;;;;;7.93;84.56;100478.63;10108833;28;9999629;-75
2022/04/19 20:24:02;;;;;;;7.03;3.63;;;;;;;7.95;85.28;100460.53;10472773;28;20259;-69
2022/04/19 20:29:05;;;;;;;6.83;3.03;;;;;;;7.94;84.19;100451.03;10470183;28;20552;-69
2022/04/19 20:34:10;;;;;;;10.33;5.10;;;;;;;7.79;84.22;100443.28;10469253;28;20542;-69
2022/04/19 20:39:13;;;;;;;7.90;3.10;;;;;;;7.71;85.91;100453.59;10468814;28;20235;-68
2022/04/19 20:44:17;;;;;;;6.10;3.20;;;;;;;7.65;85.76;100457.88;10469016;28;20228;-67
2022/04/19 20:54:42;;;;;;;7.63;3.57;;;;;;;7.71;87.92;100435.53;10469144;28;20236;-66
2022/04/19 20:59:47;;;;;;;9.00;3.30;;;;;;;7.67;89.38;100431.19;10469005;28;20716;-68
2022/04/19 21:04:52;;;;;;;6.57;3.50;;;;;;;7.67;89.18;100418.28;10468750;28;20216;-65
2022/04/19 21:09:55;;;;;;;6.93;3.30;;;;;;;7.68;89.98;100424.31;10484626;28;20256;-64
2022/04/19 21:15:01;;;;;;;5.03;2.73;;;;;;;7.63;89.70;100411.38;10468978;28;20271;-66
2022/04/19 21:20:10;;;;;;;9.27;3.87;;;;;;;7.57;88.20;100410.50;10467989;28;20271;-65
2022/04/19 21:25:15;;;;;;;5.87;2.40;;;;;;;7.56;88.08;100416.53;10468555;28;20225;-65
2022/04/19 21:30:19;;;;;;;6.70;3.00;;;;;;;7.47;88.28;100414.75;10467440;28;20224;-66
2022/04/19 21:35:24;;;;;;;6.83;2.73;;;;;;;7.50;88.07;100417.38;10461139;28;20949;-65
2022/04/19 21:40:27;;;;;;;6.33;2.60;;;;;;;7.56;87.25;100417.38;10461413;28;20224;-70
2022/04/19 21:45:30;;;;;;;5.40;2.63;;;;;;;7.45;87.41;100420.78;10461071;28;20216;-69
2022/04/19 21:50:36;;;;;;;6.63;2.97;;;;;;;7.32;88.54;100413.84;10461367;28;20217;-71
2022/04/19 21:55:39;;;;;;;7.30;3.03;;;;;;;7.33;90.40;100413.88;10460655;28;20230;-70
2022/04/19 22:00:51;;;;;;;7.10;2.97;;;;;;;7.27;90.24;100403.50;10460613;28;20243;-67
2022/04/19 22:05:56;;;;;;;6.77;2.40;;;;;;;7.35;90.90;100393.22;10460894;28;20219;-67
2022/04/19 22:11:00;;;;;;;5.70;2.50;;;;;;;7.31;92.22;100374.28;10460068;28;20231;-68
2022/04/19 22:16:04;;;;;;;5.37;2.57;;;;;;;7.18;91.30;100374.25;10460058;28;20233;-67
2022/04/19 22:21:09;;;;;;;5.83;2.53;;;;;;;7.31;91.00;100363.97;10420567;28;20232;-72
2022/04/19 22:26:12;;;;;;;8.33;2.13;;;;;;;7.32;90.30;100346.72;10422715;28;20217;-72
2022/04/19 22:31:16;;;;;;;4.67;2.13;;;;;;;7.33;89.75;100344.19;10422251;28;20225;-74
2022/04/19 22:36:20;;;;;;;5.40;2.20;;;;;;;7.30;89.94;100338.97;10421114;28;20217;-74
2022/04/19 22:41:24;;;;;;;6.73;2.60;;;;;;;7.38;89.28;100337.31;10422196;28;20225;-72
2022/04/19 22:46:27;;;;;;;5.93;2.33;;;;;;;7.41;88.89;100336.44;10420436;28;20227;-71
2022/04/19 22:51:32;;;;;;;5.63;2.13;;;;;;;7.26;89.78;100320.91;10420328;28;20673;-75
2022/04/19 22:56:37;;;;;;;6.13;2.50;;;;;;;7.36;89.91;100317.50;10420496;28;20217;-73
2022/04/19 23:01:40;;;;;;;7.13;2.57;;;;;;;7.26;91.07;100315.75;10419774;28;20641;-72
2022/04/19 23:06:45;;;;;;;6.13;2.57;;;;;;;7.35;91.74;100305.44;10419853;28;20221;-72
2022/04/19 23:11:49;;;;;;;5.43;2.67;;;;;;;7.30;91.93;100304.59;10418686;28;20221;-72
2022/04/19 23:16:52;;;;;;;8.53;4.23;;;;;;;7.37;92.54;100301.16;10425276;28;20248;-69
2022/04/19 23:21:57;;;;;;;7.17;3.10;;;;;;;7.29;93.37;100306.28;10457266;28;20358;-68
2022/04/19 23:32:21;;;;;;;6.87;3.10;;;;;;;7.32;94.13;100302.84;10456949;28;20247;-66
2022/04/19 23:37:25;;;;;;;6.80;3.00;;;;;;;7.34;94.51;100298.53;10456775;28;20304;-71
2022/04/19 23:42:28;;;;;;;6.23;3.00;;;;;;;7.40;94.90;100301.16;10456482;28;20224;-68
2022/04/19 23:47:32;;;;;;;6.77;3.20;;;;;;;7.39;94.79;100305.44;10457581;28;20240;-70
2022/04/19 23:52:38;;;;;;;5.37;2.83;;;;;;;7.37;95.12;100293.41;10456408;28;20307;-69
2022/04/19 23:57:41;;;;;;;7.30;3.40;;;;;;;7.34;96.11;100285.66;10455792;28;20225;-70
